Main page
METAR-TAF:

METAR-TAF

Airports :

Alta Floresta Airport

Alta Floresta, Mato Grosso, Brazil

latitude: 09-52S, longitude: 056-06W, elevation: 288 m

Current weather observation

The report was made 6 hours and 41 minutes ago, at 21:00 UTC
Wind 4 kt from the North/Northeast
Temperature 33°C
Humidity 32%
Pressure 1011 hPa
Visibility 10 km or more
no clouds below 1500 m and no cumulonimbus

METAR: SBAT 172100Z 03004KT CAVOK 33/14 Q1011

Time: 23:41 (03:41 UTC)

Forecast

The report was made 6 hours and 41 minutes ago, at 21:00 UTC
Forecast valid from 18 at 00 UTC to 18 at 12 UTC
Wind kt from the North
Visibility 10 km or more
no clouds below 1500 m and no cumulonimbus
Becoming
from 18 at 10 UTC to 18 at 12 UTC
Wind 5 kt from the East/Southeast

TAF: SBAT 172100Z 1800/1812 00000KT CAVOK TN22/1811Z TX27/1812Z BECMG 1810/1812 11005KT RMK PHI

Weather observations and forecasts of more than 4000 airports (METAR and TAF reports).

The available stations are represented by yellow and red dots on the map.

Hover mouse over dot to see the name of the station.

Then click to see weather observations and forecasts.

To change the map : click on the green buttons with a black cross to zoom in, on the green button with a dash to zoom out, or on the green arrows for adjacent maps.


METAR-TAF: